Time;durP1;ratioP1;P1;durP2;ratioP2;P2;SDS_P1;SDS_P2;PMS_P1;PMS_P2;Temp;Humidity;BMP_temperature;BMP_pressure;BME280_temperature;BME280_humidity;BME280_pressure;Samples;Min_cycle;Max_cycle;Signal;HPM_P1;HPM_P2
2022/08/02 00:00:57;;;;;;;4.30;1.13;;;;;;;13.97;65.64;101788.31;5048868;28;20119;-75
2022/08/02 00:03:24;;;;;;;4.63;1.45;;;;;;;13.98;65.77;101790.94;5046324;28;20136;-74
2022/08/02 00:05:52;;;;;;;2.70;1.13;;;;;;;13.99;65.95;101786.47;5045902;28;20166;-74
2022/08/02 00:08:21;;;;;;;1.70;1.02;;;;;;;14.02;65.83;101790.81;5045334;28;20069;-75
2022/08/02 00:10:49;;;;;;;3.40;1.20;;;;;;;14.03;66.41;101784.59;5048428;28;20045;-76
2022/08/02 00:13:16;;;;;;;4.35;1.38;;;;;;;14.05;66.00;101782.78;5052048;28;20128;-76
2022/08/02 00:15:43;;;;;;;2.45;1.25;;;;;;;14.06;65.56;101793.34;5049813;28;20047;-76
2022/08/02 00:18:10;;;;;;;2.42;0.95;;;;;;;14.07;65.46;101791.56;5050130;28;20065;-74
2022/08/02 00:20:38;;;;;;;3.58;1.10;;;;;;;14.07;65.62;101791.56;5050377;28;20106;-75
2022/08/02 00:23:05;;;;;;;2.47;1.00;;;;;;;14.09;65.70;101793.25;5051358;28;20044;-75
2022/08/02 00:25:32;;;;;;;2.25;1.10;;;;;;;14.12;65.42;101793.16;5049594;28;20037;-76
2022/08/02 00:27:59;;;;;;;2.45;1.42;;;;;;;14.13;65.53;101794.03;5046822;28;20087;-75
2022/08/02 00:30:26;;;;;;;3.22;1.35;;;;;;;14.14;65.40;101793.09;5047621;28;20584;-75
2022/08/02 00:32:53;;;;;;;5.30;1.35;;;;;;;14.12;65.39;101795.81;5047590;28;20045;-74
2022/08/02 00:35:24;;;;;;;3.80;1.23;;;;;;;14.12;65.22;101798.47;5049908;28;20042;-75
2022/08/02 00:37:51;;;;;;;3.58;1.20;;;;;;;14.12;65.48;101790.50;5048800;28;20041;-75
2022/08/02 00:40:22;;;;;;;4.15;1.20;;;;;;;14.12;65.75;101789.63;5048436;28;20073;-74
2022/08/02 00:43:06;;;;;;;2.75;1.20;;;;;;;14.12;65.89;101786.97;5043921;28;20555;-74
2022/08/02 00:45:39;;;;;;;4.45;1.13;;;;;;;14.12;66.41;101784.31;5049639;28;20116;-73
2022/08/02 00:48:26;;;;;;;3.28;1.17;;;;;;;14.13;66.63;101786.94;5047632;28;20049;-76
2022/08/02 00:50:55;;;;;;;3.55;1.30;;;;;;;14.14;66.52;101787.81;5049255;28;20121;-76
2022/08/02 00:53:22;;;;;;;4.28;1.65;;;;;;;14.14;66.64;101782.50;5047473;28;20152;-74
2022/08/02 00:55:49;;;;;;;3.25;1.10;;;;;;;14.16;66.49;101785.09;5049833;28;20046;-75
2022/08/02 00:58:18;;;;;;;3.45;1.10;;;;;;;14.19;65.98;101783.25;5048960;28;20501;-75
2022/08/02 01:00:45;;;;;;;2.83;1.05;;;;;;;14.20;65.60;101782.31;5045053;28;20046;-75
2022/08/02 01:03:13;;;;;;;2.25;1.08;;;;;;;14.22;65.62;101785.78;5047470;28;20069;-74
2022/08/02 01:05:43;;;;;;;5.80;1.38;;;;;;;14.22;65.36;101782.28;5048374;28;20501;-72
2022/08/02 01:08:30;;;;;;;4.80;1.23;;;;;;;14.21;65.53;101777.88;5048815;28;20045;-72
2022/08/02 01:10:58;;;;;;;6.10;1.50;;;;;;;14.19;65.77;101775.28;5048190;28;20045;-73
2022/08/02 01:13:26;;;;;;;6.45;1.60;;;;;;;14.18;65.84;101778.84;5049594;28;20144;-76
2022/08/02 01:16:13;;;;;;;4.50;1.50;;;;;;;14.12;65.94;101771.97;5049153;28;20069;-75
2022/08/02 01:18:49;;;;;;;4.70;1.67;;;;;;;14.09;66.40;101771.19;5048868;28;20049;-76
2022/08/02 01:22:01;;;;;;;3.58;1.83;;;;;;;14.05;66.67;101762.44;5048008;28;20509;-75
2022/08/02 01:25:24;;;;;;;3.50;1.73;;;;;;;13.98;66.79;101758.22;5044937;28;20104;-75
2022/08/02 01:28:16;;;;;;;4.32;1.60;;;;;;;13.94;67.34;101764.53;5048380;28;20056;-75
2022/08/02 01:30:54;;;;;;;5.47;1.80;;;;;;;13.89;67.51;101763.81;5049017;28;20546;-75
2022/08/02 01:33:25;;;;;;;4.15;1.73;;;;;;;13.87;67.35;101766.53;5049010;28;20440;-75
2022/08/02 01:35:56;;;;;;;3.95;1.80;;;;;;;13.87;67.39;101770.94;5050649;28;20116;-76
2022/08/02 01:38:36;;;;;;;4.72;2.03;;;;;;;13.84;67.42;101763.94;5050149;28;20037;-76
2022/08/02 01:41:07;;;;;;;5.35;1.90;;;;;;;13.83;67.50;101762.22;5048992;28;20493;-76
2022/08/02 01:43:39;;;;;;;8.20;2.03;;;;;;;13.81;67.59;101759.63;5047789;28;20044;-73
2022/08/02 01:46:10;;;;;;;4.85;2.03;;;;;;;13.80;67.63;101751.69;5050448;28;20037;-74
2022/08/02 01:48:42;;;;;;;5.40;2.00;;;;;;;13.79;68.08;101753.47;5047899;28;20124;-75
2022/08/02 01:51:17;;;;;;;5.63;1.85;;;;;;;13.77;68.53;101743.84;5048820;28;20809;-75
2022/08/02 01:53:50;;;;;;;5.53;1.85;;;;;;;13.76;68.54;101745.63;5044501;28;20052;-75
2022/08/02 01:56:19;;;;;;;5.18;1.88;;;;;;;13.74;68.64;101743.94;5050708;28;20515;-75
2022/08/02 01:58:48;;;;;;;4.28;1.70;;;;;;;13.70;68.38;101742.28;5048521;28;20038;-75
2022/08/02 02:01:19;;;;;;;4.82;2.42;;;;;;;13.66;68.26;101742.38;5053725;28;20049;-75
2022/08/02 02:03:48;;;;;;;6.82;2.28;;;;;;;13.68;68.08;101738.81;5052723;28;20056;-75
2022/08/02 02:06:17;;;;;;;4.75;2.20;;;;;;;13.68;68.20;101741.47;5051698;28;20069;-75
2022/08/02 02:08:44;;;;;;;4.95;2.30;;;;;;;13.67;68.43;101737.94;5047846;28;20048;-76
2022/08/02 02:11:11;;;;;;;5.15;2.72;;;;;;;13.64;68.72;101738.00;5052977;28;20493;-76
2022/08/02 02:14:02;;;;;;;7.97;2.50;;;;;;;13.61;68.65;101738.97;5050581;28;20044;-76
2022/08/02 02:16:30;;;;;;;3.50;2.28;;;;;;;13.57;68.56;101737.34;5052748;28;20038;-76
2022/08/02 02:19:02;;;;;;;5.47;2.53;;;;;;;13.53;68.77;101727.75;5048369;28;20037;-76
2022/08/02 02:21:30;;;;;;;7.07;2.22;;;;;;;13.54;68.87;101728.59;5053134;28;20124;-76
2022/08/02 02:23:58;;;;;;;4.18;2.47;;;;;;;13.52;69.30;101720.69;5047972;28;20067;-76
2022/08/02 02:26:28;;;;;;;5.00;2.65;;;;;;;13.49;69.21;101728.72;5051393;28;20041;-76
2022/08/02 02:29:03;;;;;;;6.70;2.50;;;;;;;13.47;69.27;101722.63;5050055;28;20129;-76
2022/08/02 02:31:38;;;;;;;5.30;2.40;;;;;;;13.44;69.99;101714.75;5051878;28;20080;-76
2022/08/02 02:34:34;;;;;;;7.07;2.42;;;;;;;13.39;70.07;101720.19;5047094;28;20037;-76
2022/08/02 02:37:07;;;;;;;5.03;2.30;;;;;;;13.35;70.45;101722.03;5051950;28;20057;-73
2022/08/02 02:39:37;;;;;;;4.13;1.95;;;;;;;13.30;70.40;101718.63;5045721;28;20599;-73
2022/08/02 02:42:12;;;;;;;8.98;2.30;;;;;;;13.27;70.56;101712.53;5051383;28;20037;-73
2022/08/02 02:44:42;;;;;;;4.72;2.47;;;;;;;13.26;70.66;101713.44;5066026;28;20069;-73
2022/08/02 02:47:12;;;;;;;4.05;2.25;;;;;;;13.24;70.71;101712.63;5051888;28;20128;-73
2022/08/02 02:49:46;;;;;;;5.68;2.60;;;;;;;13.22;70.68;101719.78;5050004;28;20048;-72
2022/08/02 02:52:16;;;;;;;5.65;2.58;;;;;;;13.17;70.82;101706.66;5052703;28;20170;-72
2022/08/02 02:54:48;;;;;;;7.55;2.92;;;;;;;13.15;70.99;101704.03;5047641;28;20056;-72
2022/08/02 02:57:16;;;;;;;6.90;2.95;;;;;;;13.15;71.01;101704.03;5051528;28;20520;-73
2022/08/02 02:59:44;;;;;;;5.85;2.45;;;;;;;13.15;70.94;101711.13;5048925;28;20048;-73
2022/08/02 03:02:18;;;;;;;6.18;2.70;;;;;;;13.13;71.51;101705.00;5050610;28;20224;-75
2022/08/02 03:04:46;;;;;;;5.40;2.95;;;;;;;13.12;71.66;101698.84;5048452;28;20076;-74
2022/08/02 03:07:25;;;;;;;3.75;3.03;;;;;;;13.09;71.92;101698.91;5049432;28;20805;-73
2022/08/02 03:09:53;;;;;;;5.03;2.60;;;;;;;13.08;72.03;101704.22;5051398;28;20064;-74
2022/08/02 03:12:23;;;;;;;5.90;2.85;;;;;;;13.07;71.75;101699.88;5051372;28;20080;-74
2022/08/02 03:15:03;;;;;;;4.93;2.55;;;;;;;13.09;72.41;101698.03;5049606;28;20531;-74
2022/08/02 03:17:41;;;;;;;8.23;3.05;;;;;;;13.08;72.60;101699.81;5051481;28;20093;-74
2022/08/02 03:20:16;;;;;;;8.27;3.08;;;;;;;13.07;72.42;101697.22;5051004;28;20061;-73
2022/08/02 03:22:45;;;;;;;5.63;3.35;;;;;;;13.07;72.69;101695.44;5051288;28;20496;-73
2022/08/02 03:25:14;;;;;;;10.20;2.95;;;;;;;13.07;72.75;101689.28;5039566;28;20069;-72
2022/08/02 03:27:42;;;;;;;6.07;2.83;;;;;;;13.08;73.04;101696.28;5051435;28;20049;-73
2022/08/02 03:30:12;;;;;;;4.80;2.40;;;;;;;13.06;73.46;101685.75;5050068;28;20048;-73
2022/08/02 03:32:44;;;;;;;5.10;2.40;;;;;;;13.01;73.34;101691.16;5050317;28;20051;-73
2022/08/02 03:35:15;;;;;;;5.38;2.80;;;;;;;13.00;73.35;101692.06;5048792;28;20045;-73
2022/08/02 03:37:54;;;;;;;8.07;3.00;;;;;;;12.96;73.36;101698.38;5043170;28;20514;-74
2022/08/02 03:40:23;;;;;;;6.50;3.15;;;;;;;12.95;73.33;101701.06;5050679;28;20038;-75
2022/08/02 03:42:53;;;;;;;4.57;2.60;;;;;;;12.92;73.29;101694.06;5052167;28;20034;-74
2022/08/02 03:45:21;;;;;;;4.55;2.70;;;;;;;12.90;73.24;101690.59;5049944;28;20044;-74
2022/08/02 03:47:49;;;;;;;5.93;2.90;;;;;;;12.87;73.34;101683.59;5051002;28;20531;-75
2022/08/02 03:50:18;;;;;;;6.88;2.90;;;;;;;12.86;73.29;101689.81;5049405;28;20048;-74
2022/08/02 03:52:46;;;;;;;8.60;2.90;;;;;;;12.85;73.55;101685.41;5050359;28;20041;-74
2022/08/02 03:55:14;;;;;;;8.93;2.92;;;;;;;12.86;73.65;101691.59;5039577;28;20046;-75
2022/08/02 03:57:42;;;;;;;4.93;2.70;;;;;;;12.86;73.98;101687.16;5050414;28;20131;-74
2022/08/02 04:00:18;;;;;;;5.53;2.83;;;;;;;12.87;74.12;101682.75;5050402;28;20072;-75
2022/08/02 04:02:45;;;;;;;5.82;3.13;;;;;;;12.84;74.03;101677.53;5050210;28;20575;-71
2022/08/02 04:05:14;;;;;;;5.82;2.90;;;;;;;12.85;74.24;101687.22;5048985;28;20602;-75
2022/08/02 04:07:42;;;;;;;4.55;2.60;;;;;;;12.82;74.12;101684.63;5053474;28;20040;-75
2022/08/02 04:10:29;;;;;;;5.78;3.13;;;;;;;12.83;74.41;101691.66;5051252;28;20049;-75
2022/08/02 04:12:58;;;;;;;7.53;3.08;;;;;;;12.85;74.28;101693.34;5050552;28;20040;-75
2022/08/02 04:15:25;;;;;;;6.82;3.10;;;;;;;12.86;74.29;101691.59;5048493;28;20038;-75
2022/08/02 04:17:58;;;;;;;10.88;3.00;;;;;;;12.88;74.65;101693.28;5045553;28;20045;-75
2022/08/02 04:20:32;;;;;;;3.55;2.83;;;;;;;12.89;74.72;101688.84;5048273;28;20488;-77
2022/08/02 04:23:06;;;;;;;4.90;3.10;;;;;;;12.91;74.35;101692.31;5049895;28;20075;-77
2022/08/02 04:25:36;;;;;;;6.88;3.17;;;;;;;12.95;74.83;101682.53;5049824;28;20038;-76
2022/08/02 04:28:09;;;;;;;4.80;2.95;;;;;;;13.03;74.50;101685.81;5048223;28;20045;-75
2022/08/02 04:30:46;;;;;;;5.60;3.00;;;;;;;13.09;74.38;101690.97;5045417;28;20049;-76
2022/08/02 04:33:14;;;;;;;6.18;2.85;;;;;;;13.17;74.79;101690.78;5050584;28;20041;-77
2022/08/02 04:35:43;;;;;;;4.75;2.92;;;;;;;13.27;74.63;101700.19;5048213;28;20042;-77
2022/08/02 04:38:14;;;;;;;8.35;2.95;;;;;;;13.35;74.73;101695.53;5048891;28;20042;-76
2022/08/02 04:40:51;;;;;;;5.22;3.13;;;;;;;13.44;74.43;101697.06;5049084;28;20049;-76
2022/08/02 04:43:19;;;;;;;7.32;3.15;;;;;;;13.55;74.46;101701.19;5049524;28;20041;-77
2022/08/02 04:45:51;;;;;;;6.72;3.30;;;;;;;13.64;74.02;101703.56;5049164;28;20041;-77
2022/08/02 04:48:20;;;;;;;7.53;2.97;;;;;;;13.70;73.86;101700.75;5051236;28;20041;-78
2022/08/02 04:50:47;;;;;;;10.30;3.10;;;;;;;13.72;73.84;101696.28;5049827;28;20096;-77
2022/08/02 04:53:15;;;;;;;6.22;3.03;;;;;;;13.80;73.59;101702.22;5050038;28;20418;-76
2022/08/02 04:55:42;;;;;;;15.77;3.90;;;;;;;13.90;73.45;101696.63;5049235;28;20095;-76
2022/08/02 04:58:09;;;;;;;9.98;3.55;;;;;;;13.99;73.39;101696.34;5048899;28;20042;-76
2022/08/02 05:00:56;;;;;;;9.18;3.53;;;;;;;14.07;72.97;101693.47;5044268;28;20049;-75
2022/08/02 05:03:23;;;;;;;7.25;3.05;;;;;;;14.13;72.93;101685.31;5043900;28;20040;-76
2022/08/02 05:05:50;;;;;;;15.95;4.55;;;;;;;14.23;72.69;101684.09;5041437;28;20494;-75
2022/08/02 05:08:18;;;;;;;9.60;3.80;;;;;;;14.32;72.58;101687.38;5048820;28;20505;-76
2022/08/02 05:10:45;;;;;;;10.48;3.80;;;;;;;14.41;72.53;101680.00;5050483;28;20037;-74
2022/08/02 05:13:12;;;;;;;7.38;3.05;;;;;;;14.55;72.53;101683.97;5049430;28;20037;-74
2022/08/02 05:15:39;;;;;;;12.45;3.63;;;;;;;14.70;72.12;101688.78;5063962;28;20875;-73
2022/08/02 05:18:06;;;;;;;9.18;3.38;;;;;;;14.83;72.15;101689.22;5048510;28;20064;-74
2022/08/02 05:20:33;;;;;;;5.85;3.20;;;;;;;14.95;71.91;101685.28;5050039;28;20042;-74
2022/08/02 05:23:02;;;;;;;4.53;3.35;;;;;;;15.03;72.04;101674.38;5052792;28;20037;-74
2022/08/02 05:25:29;;;;;;;8.45;3.30;;;;;;;15.15;71.92;101683.72;5048881;28;20041;-74
2022/08/02 05:27:56;;;;;;;7.05;3.53;;;;;;;15.24;71.98;101677.19;5049831;28;20041;-74
2022/08/02 05:30:23;;;;;;;16.15;3.90;;;;;;;15.33;71.91;101668.88;5048728;28;20045;-74
2022/08/02 05:32:53;;;;;;;13.32;3.67;;;;;;;15.40;71.80;101667.72;5048808;28;20568;-74
2022/08/02 05:35:23;;;;;;;10.15;3.53;;;;;;;15.46;71.71;101658.66;5052128;28;20030;-73
2022/08/02 05:37:51;;;;;;;8.18;3.17;;;;;;;15.56;71.63;101669.78;5053092;28;20785;-74
2022/08/02 05:40:19;;;;;;;7.10;3.60;;;;;;;15.67;71.38;101667.59;5054111;28;20560;-74
2022/08/02 05:42:53;;;;;;;10.65;3.63;;;;;;;15.81;71.06;101667.94;5068557;28;20116;-74
2022/08/02 05:45:21;;;;;;;15.55;3.97;;;;;;;16.10;70.44;101673.03;5052341;28;20515;-74
2022/08/02 05:47:51;;;;;;;4.93;3.38;;;;;;;16.55;69.15;101664.09;5050736;28;20046;-74
2022/08/02 05:50:19;;;;;;;10.13;3.30;;;;;;;16.55;68.87;101666.75;5056423;28;20496;-74
2022/08/02 05:53:01;;;;;;;9.93;3.85;;;;;;;16.66;68.61;101663.63;5058994;28;20471;-74
2022/08/02 05:55:46;;;;;;;9.50;3.80;;;;;;;16.72;68.38;101663.38;5054570;28;20037;-75
2022/08/02 05:58:29;;;;;;;9.10;3.53;;;;;;;17.85;66.17;101660.09;5061256;28;20038;-75
2022/08/02 06:01:02;;;;;;;9.40;3.22;;;;;;;19.74;61.42;101658.41;5050251;28;20048;-75
2022/08/02 06:03:41;;;;;;;7.70;3.38;;;;;;;21.28;56.81;101644.94;5048813;28;20053;-76
2022/08/02 06:06:23;;;;;;;6.82;3.35;;;;;;;21.66;55.49;101655.06;5050257;28;20045;-75
2022/08/02 06:09:08;;;;;;;11.63;3.25;;;;;;;20.94;56.21;101655.94;5051491;28;20050;-73
2022/08/02 06:11:41;;;;;;;11.20;3.30;;;;;;;20.19;58.32;101660.41;5055244;28;20052;-75
2022/08/02 06:14:33;;;;;;;7.90;3.35;;;;;;;19.62;59.43;101651.06;5048668;28;20056;-74
2022/08/02 06:17:03;;;;;;;27.38;4.25;;;;;;;19.25;60.66;101664.66;5050754;28;20048;-75
2022/08/02 06:19:32;;;;;;;12.10;4.10;;;;;;;18.95;61.83;101669.81;5051943;28;20158;-74
2022/08/02 06:22:19;;;;;;;12.13;3.85;;;;;;;18.75;62.78;101658.34;5052749;28;20089;-73
2022/08/02 06:25:07;;;;;;;9.07;3.42;;;;;;;18.69;63.28;101664.00;5050936;28;21027;-74
2022/08/02 06:27:55;;;;;;;7.72;3.83;;;;;;;18.67;63.79;101661.41;5050902;28;20120;-74
2022/08/02 06:30:23;;;;;;;25.73;4.30;;;;;;;18.67;64.19;101657.88;5053158;28;20045;-71
2022/08/02 06:32:51;;;;;;;16.30;3.75;;;;;;;18.70;64.35;101653.25;5052612;28;20049;-71
2022/08/02 06:35:19;;;;;;;13.75;3.80;;;;;;;18.78;64.29;101652.81;5054811;28;20152;-72
2022/08/02 06:37:59;;;;;;;19.52;4.47;;;;;;;18.89;64.58;101655.81;5052931;28;20045;-71
2022/08/02 06:40:47;;;;;;;10.35;4.45;;;;;;;19.05;64.32;101657.72;5050659;28;20801;-71
2022/08/02 06:43:25;;;;;;;13.20;4.40;;;;;;;19.16;64.72;101646.44;5051012;28;20559;-71
2022/08/02 06:45:53;;;;;;;13.32;4.10;;;;;;;19.24;64.37;101650.44;5052511;28;20049;-71
2022/08/02 06:48:40;;;;;;;18.88;4.55;;;;;;;19.38;64.61;101652.34;5044335;28;20065;-71
2022/08/02 06:51:07;;;;;;;23.95;5.60;;;;;;;19.52;64.51;101648.91;5050794;28;20045;-71
2022/08/02 06:53:34;;;;;;;16.35;5.20;;;;;;;19.59;64.63;101644.09;5051695;28;20045;-71
2022/08/02 06:56:02;;;;;;;11.95;4.63;;;;;;;19.68;64.40;101648.06;5051491;28;20041;-71
2022/08/02 06:58:33;;;;;;;12.10;4.88;;;;;;;19.74;64.76;101647.72;5051400;28;20037;-71
2022/08/02 07:01:00;;;;;;;9.52;5.32;;;;;;;19.81;64.39;101646.41;5066494;28;20041;-71
2022/08/02 07:03:28;;;;;;;15.07;4.97;;;;;;;19.90;64.56;101647.75;5054436;28;20042;-71
2022/08/02 07:05:55;;;;;;;12.70;4.93;;;;;;;19.98;64.06;101639.28;5053830;28;20424;-72
2022/08/02 07:08:23;;;;;;;13.27;5.03;;;;;;;20.10;63.88;101638.56;5052767;28;20048;-71
2022/08/02 07:10:51;;;;;;;17.05;5.50;;;;;;;20.27;63.86;101639.41;5066122;28;20044;-71
2022/08/02 07:13:18;;;;;;;11.95;5.30;;;;;;;20.41;62.90;101638.56;5050328;28;20056;-71
2022/08/02 07:15:45;;;;;;;11.88;6.57;;;;;;;20.56;63.00;101636.81;5048699;28;20045;-71
2022/08/02 07:18:16;;;;;;;11.25;5.95;;;;;;;20.63;62.92;101641.69;5052706;28;20044;-71
2022/08/02 07:20:43;;;;;;;9.25;6.15;;;;;;;20.66;63.21;101646.00;5046906;28;20583;-71
2022/08/02 07:23:12;;;;;;;11.75;6.15;;;;;;;20.82;62.64;101650.44;5050907;28;20048;-71
2022/08/02 07:25:40;;;;;;;22.50;6.82;;;;;;;20.96;62.81;101644.28;5053668;28;20042;-71
2022/08/02 07:28:27;;;;;;;15.77;7.43;;;;;;;21.08;62.49;101635.44;5050565;28;20493;-72
2022/08/02 07:30:54;;;;;;;12.30;6.28;;;;;;;21.25;62.67;101639.75;5049884;28;20713;-71
2022/08/02 07:33:22;;;;;;;19.55;6.57;;;;;;;21.40;62.03;101640.59;5057174;28;20474;-71
2022/08/02 07:36:07;;;;;;;14.18;6.40;;;;;;;21.55;62.19;101639.63;5045741;28;20154;-71
2022/08/02 07:38:43;;;;;;;19.40;7.00;;;;;;;21.70;61.47;101632.44;5053361;28;20116;-71
2022/08/02 07:41:11;;;;;;;10.23;6.40;;;;;;;21.86;61.29;101634.13;5066079;28;20041;-71
2022/08/02 07:43:39;;;;;;;11.43;7.03;;;;;;;22.01;60.86;101637.59;5055451;28;20041;-73
2022/08/02 07:46:06;;;;;;;12.45;7.22;;;;;;;22.13;60.99;101633.25;5051455;28;20120;-73
2022/08/02 07:48:33;;;;;;;14.45;7.65;;;;;;;22.24;60.27;101630.69;5061503;28;20099;-72
2022/08/02 07:51:00;;;;;;;12.60;7.13;;;;;;;22.29;60.52;101628.56;5064115;28;20763;-72
2022/08/02 07:53:27;;;;;;;11.13;7.10;;;;;;;22.37;60.51;101628.06;5059695;28;20072;-73
2022/08/02 07:56:15;;;;;;;11.10;6.82;;;;;;;22.43;60.16;101624.13;5063192;28;20044;-72
2022/08/02 07:58:42;;;;;;;10.52;6.72;;;;;;;22.55;59.82;101623.25;5053652;28;20048;-72
2022/08/02 08:01:09;;;;;;;11.25;6.93;;;;;;;22.65;59.71;101618.97;5045246;28;20586;-72
2022/08/02 08:03:37;;;;;;;12.45;7.07;;;;;;;22.74;59.27;101616.63;5057583;28;20037;-73
2022/08/02 08:06:04;;;;;;;20.63;6.43;;;;;;;22.83;57.88;101617.81;5050363;28;20048;-72
2022/08/02 08:08:33;;;;;;;13.90;6.85;;;;;;;22.85;58.91;101616.72;5058950;28;20045;-73
2022/08/02 08:11:01;;;;;;;18.23;6.72;;;;;;;22.92;58.70;101620.72;5060061;28;20934;-72
2022/08/02 08:13:28;;;;;;;11.70;6.45;;;;;;;23.03;58.50;101617.25;5055486;28;20048;-72
2022/08/02 08:15:55;;;;;;;16.52;6.70;;;;;;;23.16;57.54;101611.00;5050178;28;20049;-72
2022/08/02 08:18:22;;;;;;;9.27;6.10;;;;;;;23.26;55.92;101614.78;5050208;28;20080;-72
2022/08/02 08:20:50;;;;;;;10.38;6.30;;;;;;;23.28;55.62;101610.16;5047559;28;20053;-71
2022/08/02 08:23:18;;;;;;;7.82;5.90;;;;;;;23.29;55.54;101606.50;5049079;28;20868;-72
2022/08/02 08:25:45;;;;;;;14.23;6.22;;;;;;;23.33;56.78;101612.50;5052817;28;20050;-72
2022/08/02 08:28:12;;;;;;;8.02;5.88;;;;;;;23.42;56.74;101607.31;5054647;28;20087;-73
2022/08/02 08:30:41;;;;;;;8.63;6.10;;;;;;;23.55;56.64;101611.78;5059980;28;20049;-72
2022/08/02 08:33:08;;;;;;;8.93;6.15;;;;;;;23.71;56.23;101606.16;5054444;28;20048;-73
2022/08/02 08:35:35;;;;;;;7.72;5.60;;;;;;;23.81;56.18;101600.94;5043493;28;20121;-72
2022/08/02 08:38:08;;;;;;;17.15;5.95;;;;;;;23.96;55.33;101615.13;5045771;28;20042;-73
2022/08/02 08:40:38;;;;;;;9.63;5.65;;;;;;;24.08;54.75;101608.78;5049319;28;20124;-74
2022/08/02 08:43:05;;;;;;;9.13;5.35;;;;;;;24.21;53.95;101602.47;5049706;28;20092;-71
2022/08/02 08:45:32;;;;;;;8.88;5.50;;;;;;;24.31;54.63;101603.47;5049322;28;20528;-72
2022/08/02 08:48:12;;;;;;;8.82;4.68;;;;;;;24.45;52.02;101602.41;5046165;28;20088;-71
2022/08/02 08:50:50;;;;;;;12.13;5.68;;;;;;;24.43;52.23;101601.66;5046171;28;20069;-72
2022/08/02 08:53:20;;;;;;;9.60;4.90;;;;;;;24.44;52.73;101608.78;5050651;28;20222;-73
2022/08/02 08:56:03;;;;;;;5.50;4.72;;;;;;;24.53;52.61;101602.66;5049736;28;20045;-71
2022/08/02 08:58:30;;;;;;;8.82;4.97;;;;;;;24.61;51.90;101608.34;5047451;28;20353;-74
2022/08/02 09:00:59;;;;;;;12.10;4.30;;;;;;;24.60;52.10;101609.31;5048481;28;20042;-72
2022/08/02 09:03:26;;;;;;;5.97;3.60;;;;;;;24.69;50.83;101605.06;5044842;28;20037;-71
2022/08/02 09:06:00;;;;;;;14.52;3.42;;;;;;;24.79;51.67;101597.97;5050312;28;20058;-73
2022/08/02 09:08:27;;;;;;;15.75;3.70;;;;;;;24.99;50.34;101598.22;5046320;28;20076;-72
2022/08/02 09:10:54;;;;;;;5.63;2.72;;;;;;;25.15;50.32;101602.41;5042997;28;20045;-73
2022/08/02 09:13:28;;;;;;;31.35;5.95;;;;;;;25.33;50.11;101600.91;5049026;28;20196;-72
2022/08/02 09:16:12;;;;;;;6.95;3.10;;;;;;;25.46;49.91;101603.47;5049526;28;20045;-72
2022/08/02 09:18:45;;;;;;;8.80;3.05;;;;;;;25.56;50.63;101600.91;5049646;28;20076;-71
2022/08/02 09:21:15;;;;;;;9.85;3.28;;;;;;;25.68;50.18;101594.47;5047253;28;20050;-72
2022/08/02 09:23:49;;;;;;;14.77;2.72;;;;;;;25.73;50.19;101592.25;5048606;28;20104;-72
2022/08/02 09:26:22;;;;;;;8.20;3.00;;;;;;;25.73;49.81;101594.09;5047173;28;20041;-72
2022/08/02 09:28:58;;;;;;;7.03;2.88;;;;;;;25.74;49.36;101593.97;5050246;28;20469;-72
2022/08/02 09:31:26;;;;;;;9.25;2.42;;;;;;;25.80;49.20;101602.53;5050081;28;20459;-73
2022/08/02 09:33:57;;;;;;;5.53;2.60;;;;;;;25.75;48.96;101602.91;5049912;28;20065;-72
2022/08/02 09:36:36;;;;;;;8.50;2.72;;;;;;;25.68;49.27;101601.72;5051194;28;20041;-72
2022/08/02 09:39:07;;;;;;;7.75;2.58;;;;;;;25.71;49.79;101612.25;5049866;28;20096;-72
2022/08/02 09:41:41;;;;;;;10.25;2.40;;;;;;;25.77;49.81;101608.19;5049454;28;20064;-73
2022/08/02 09:44:11;;;;;;;9.05;2.45;;;;;;;25.86;49.42;101602.88;5046580;28;20521;-72
2022/08/02 09:46:45;;;;;;;11.43;2.65;;;;;;;26.00;49.12;101595.47;5045133;28;20125;-71
2022/08/02 09:49:18;;;;;;;7.70;2.33;;;;;;;26.14;48.95;101597.91;5046881;28;20501;-72
2022/08/02 09:51:45;;;;;;;;;;;;;;;26.22;49.31;101604.47;5049066;28;20534;-73
2022/08/02 09:54:23;;;;;;;4.90;2.25;;;;;;;26.31;48.06;101587.47;5047439;28;20363;-72
2022/08/02 09:56:55;;;;;;;10.65;2.05;;;;;;;26.39;48.25;101590.38;5047837;28;20041;-73
2022/08/02 09:59:24;;;;;;;20.90;2.40;;;;;;;26.48;47.49;101589.56;5046789;28;20116;-73
2022/08/02 10:01:53;;;;;;;24.52;3.17;;;;;;;26.56;46.98;101588.91;5047901;28;20089;-73
2022/08/02 10:04:31;;;;;;;14.65;2.50;;;;;;;26.72;46.07;101591.13;5049088;28;20886;-73
2022/08/02 10:07:19;;;;;;;15.57;2.08;;;;;;;26.75;46.80;101580.06;5048859;28;20108;-73
2022/08/02 10:09:50;;;;;;;16.05;2.17;;;;;;;26.91;46.14;101584.13;5048541;28;20045;-73
2022/08/02 10:12:21;;;;;;;32.88;2.67;;;;;;;27.05;45.27;101593.72;5049660;28;20132;-73
2022/08/02 10:14:53;;;;;;;7.13;1.83;;;;;;;27.06;46.01;101584.63;5052245;28;20077;-73
2022/08/02 10:17:20;;;;;;;7.80;2.35;;;;;;;27.09;45.28;101582.50;5049235;28;20030;-74
2022/08/02 10:19:48;;;;;;;6.95;1.80;;;;;;;27.12;45.80;101582.22;5051841;28;20034;-72
2022/08/02 10:22:33;;;;;;;10.27;2.28;;;;;;;27.22;45.61;101581.41;5052267;28;20112;-74
2022/08/02 10:25:03;;;;;;;12.55;2.67;;;;;;;27.26;44.83;101580.13;5057375;28;20132;-73
2022/08/02 10:27:31;;;;;;;10.90;2.58;;;;;;;27.25;44.80;101575.72;5050645;28;20037;-73
2022/08/02 10:30:22;;;;;;;10.10;1.90;;;;;;;27.23;44.91;101564.16;5054143;28;20053;-73
2022/08/02 10:32:52;;;;;;;12.35;1.50;;;;;;;27.33;44.13;101570.47;5055436;28;20048;-74
2022/08/02 10:35:23;;;;;;;3.70;1.30;;;;;;;27.51;43.81;101572.50;5049096;28;20057;-74
2022/08/02 10:37:59;;;;;;;6.88;1.73;;;;;;;27.61;43.82;101573.38;5047562;28;20049;-74
2022/08/02 10:40:52;;;;;;;2.92;1.33;;;;;;;27.72;42.62;101581.38;5051174;28;20045;-74
2022/08/02 10:43:31;;;;;;;4.55;1.50;;;;;;;27.76;42.88;101584.66;5054641;28;20042;-74
2022/08/02 10:46:26;;;;;;;12.05;1.70;;;;;;;27.87;43.51;101581.81;5056177;28;20075;-75
2022/08/02 10:49:19;;;;;;;7.65;1.88;;;;;;;28.14;40.40;101573.97;5050250;28;20041;-74
2022/08/02 10:52:08;;;;;;;3.22;1.50;;;;;;;28.19;40.54;101568.97;5052650;28;20493;-75
2022/08/02 10:54:39;;;;;;;10.27;1.77;;;;;;;28.18;40.76;101578.97;5052071;28;20038;-74
2022/08/02 10:57:19;;;;;;;5.65;1.50;;;;;;;28.26;41.16;101574.66;5050550;28;20041;-73
2022/08/02 10:59:50;;;;;;;7.95;1.52;;;;;;;28.42;40.45;101576.78;5045350;28;20041;-73
2022/08/02 11:02:43;;;;;;;6.22;1.52;;;;;;;28.54;39.83;101575.63;5049878;28;20129;-72
2022/08/02 11:05:30;;;;;;;5.18;1.48;;;;;;;28.58;38.79;101570.75;5049881;28;20045;-73
2022/08/02 11:08:21;;;;;;;11.02;1.83;;;;;;;28.62;38.39;101575.72;5050212;28;20144;-74
2022/08/02 11:10:48;;;;;;;2.28;1.02;;;;;;;28.57;38.47;101572.63;5049486;28;21178;-75
2022/08/02 11:13:18;;;;;;;6.50;1.23;;;;;;;28.50;38.55;101568.75;5051120;28;20049;-74
2022/08/02 11:15:55;;;;;;;4.47;1.52;;;;;;;28.34;38.10;101572.06;5049625;28;21284;-73
2022/08/02 11:18:42;;;;;;;11.20;2.05;;;;;;;28.18;39.15;101565.41;5044796;28;20046;-73
2022/08/02 11:21:27;;;;;;;6.30;1.60;;;;;;;28.03;39.53;101564.13;5047159;28;20049;-74
2022/08/02 11:23:55;;;;;;;18.08;2.85;;;;;;;28.10;39.26;101565.28;5059163;28;20077;-75
2022/08/02 11:26:31;;;;;;;18.13;2.58;;;;;;;28.16;39.85;101553.03;5044456;28;20133;-73
2022/08/02 11:29:03;;;;;;;4.82;1.42;;;;;;;28.29;39.30;101566.25;5052817;28;20061;-74
2022/08/02 11:31:48;;;;;;;10.48;1.73;;;;;;;28.43;38.22;101552.25;5050934;28;20091;-74
2022/08/02 11:34:16;;;;;;;9.90;1.70;;;;;;;28.46;38.28;101551.09;5049970;28;20041;-73
2022/08/02 11:37:04;;;;;;;11.90;1.63;;;;;;;28.63;37.47;101541.34;5056302;28;20046;-74
2022/08/02 11:39:31;;;;;;;15.52;2.15;;;;;;;28.80;36.96;101545.13;5064867;28;20119;-74
2022/08/02 11:42:00;;;;;;;17.15;2.03;;;;;;;28.97;36.88;101554.34;5050673;28;20073;-75
2022/08/02 11:44:37;;;;;;;9.13;1.58;;;;;;;29.10;35.95;101552.13;5062278;28;20558;-75
2022/08/02 11:47:13;;;;;;;7.18;1.50;;;;;;;29.20;34.91;101557.50;5046982;28;20135;-75